sensor_id;sensor_type;location;lat;lon;timestamp;P1;durP1;ratioP1;P2;durP2;ratioP2
84315;SDS011;74496;52.236;5.164;2024-03-22T00:00:39;36.15;;;24.98;;
84315;SDS011;74496;52.236;5.164;2024-03-22T00:03:05;37.17;;;23.80;;
84315;SDS011;74496;52.236;5.164;2024-03-22T00:05:31;35.97;;;24.42;;
84315;SDS011;74496;52.236;5.164;2024-03-22T00:07:57;33.93;;;23.67;;
84315;SDS011;74496;52.236;5.164;2024-03-22T00:10:23;35.03;;;23.60;;
84315;SDS011;74496;52.236;5.164;2024-03-22T00:12:49;29.92;;;22.73;;
84315;SDS011;74496;52.236;5.164;2024-03-22T00:15:17;29.50;;;23.60;;
84315;SDS011;74496;52.236;5.164;2024-03-22T00:17:44;32.73;;;24.23;;
84315;SDS011;74496;52.236;5.164;2024-03-22T00:20:11;34.25;;;24.05;;
84315;SDS011;74496;52.236;5.164;2024-03-22T00:22:36;34.35;;;23.75;;
84315;SDS011;74496;52.236;5.164;2024-03-22T00:25:03;38.47;;;24.57;;
84315;SDS011;74496;52.236;5.164;2024-03-22T00:27:31;35.92;;;24.13;;
84315;SDS011;74496;52.236;5.164;2024-03-22T00:29:58;39.53;;;25.23;;
84315;SDS011;74496;52.236;5.164;2024-03-22T00:32:25;37.50;;;23.52;;
84315;SDS011;74496;52.236;5.164;2024-03-22T00:34:52;39.38;;;25.60;;
84315;SDS011;74496;52.236;5.164;2024-03-22T00:37:17;40.80;;;25.80;;
84315;SDS011;74496;52.236;5.164;2024-03-22T00:39:44;39.13;;;24.10;;
84315;SDS011;74496;52.236;5.164;2024-03-22T00:42:10;35.53;;;23.93;;
84315;SDS011;74496;52.236;5.164;2024-03-22T00:44:36;36.53;;;25.73;;
84315;SDS011;74496;52.236;5.164;2024-03-22T00:47:02;36.95;;;24.13;;
84315;SDS011;74496;52.236;5.164;2024-03-22T00:49:30;39.73;;;25.40;;
84315;SDS011;74496;52.236;5.164;2024-03-22T00:51:56;38.15;;;24.65;;
84315;SDS011;74496;52.236;5.164;2024-03-22T00:54:23;35.80;;;23.98;;
84315;SDS011;74496;52.236;5.164;2024-03-22T00:56:48;38.87;;;25.93;;
84315;SDS011;74496;52.236;5.164;2024-03-22T00:59:17;36.87;;;22.13;;
84315;SDS011;74496;52.236;5.164;2024-03-22T01:01:43;39.88;;;25.25;;
84315;SDS011;74496;52.236;5.164;2024-03-22T01:04:09;43.35;;;25.20;;
84315;SDS011;74496;52.236;5.164;2024-03-22T01:06:37;39.33;;;25.70;;
84315;SDS011;74496;52.236;5.164;2024-03-22T01:09:05;36.00;;;23.85;;
84315;SDS011;74496;52.236;5.164;2024-03-22T01:11:30;40.95;;;25.00;;
84315;SDS011;74496;52.236;5.164;2024-03-22T01:13:57;36.07;;;24.10;;
84315;SDS011;74496;52.236;5.164;2024-03-22T01:16:22;37.90;;;23.75;;
84315;SDS011;74496;52.236;5.164;2024-03-22T01:18:49;40.08;;;25.08;;
84315;SDS011;74496;52.236;5.164;2024-03-22T01:21:15;38.30;;;24.53;;
84315;SDS011;74496;52.236;5.164;2024-03-22T01:23:43;36.67;;;23.58;;
84315;SDS011;74496;52.236;5.164;2024-03-22T01:26:08;46.22;;;24.48;;
84315;SDS011;74496;52.236;5.164;2024-03-22T01:28:35;39.63;;;24.33;;
84315;SDS011;74496;52.236;5.164;2024-03-22T01:31:01;29.83;;;20.25;;
84315;SDS011;74496;52.236;5.164;2024-03-22T01:33:27;39.10;;;23.63;;
84315;SDS011;74496;52.236;5.164;2024-03-22T01:35:53;37.27;;;22.60;;
84315;SDS011;74496;52.236;5.164;2024-03-22T01:38:20;36.38;;;22.50;;
84315;SDS011;74496;52.236;5.164;2024-03-22T01:40:47;36.77;;;23.57;;
84315;SDS011;74496;52.236;5.164;2024-03-22T01:43:14;39.63;;;23.55;;
84315;SDS011;74496;52.236;5.164;2024-03-22T01:45:40;43.42;;;23.17;;
84315;SDS011;74496;52.236;5.164;2024-03-22T01:48:07;43.00;;;23.60;;
84315;SDS011;74496;52.236;5.164;2024-03-22T01:50:32;37.20;;;23.30;;
84315;SDS011;74496;52.236;5.164;2024-03-22T01:53:01;44.17;;;24.55;;
84315;SDS011;74496;52.236;5.164;2024-03-22T01:55:28;38.30;;;23.98;;
84315;SDS011;74496;52.236;5.164;2024-03-22T01:57:56;37.28;;;21.75;;
84315;SDS011;74496;52.236;5.164;2024-03-22T02:00:22;43.30;;;24.70;;
84315;SDS011;74496;52.236;5.164;2024-03-22T02:02:49;47.20;;;25.00;;
84315;SDS011;74496;52.236;5.164;2024-03-22T02:05:15;41.42;;;25.33;;
84315;SDS011;74496;52.236;5.164;2024-03-22T02:07:44;44.97;;;25.17;;
84315;SDS011;74496;52.236;5.164;2024-03-22T02:10:10;48.92;;;26.08;;
84315;SDS011;74496;52.236;5.164;2024-03-22T02:12:37;43.25;;;26.02;;
84315;SDS011;74496;52.236;5.164;2024-03-22T02:15:05;45.75;;;24.77;;
84315;SDS011;74496;52.236;5.164;2024-03-22T02:17:33;55.90;;;28.53;;
84315;SDS011;74496;52.236;5.164;2024-03-22T02:20:02;40.50;;;23.92;;
84315;SDS011;74496;52.236;5.164;2024-03-22T02:22:30;49.72;;;26.88;;
84315;SDS011;74496;52.236;5.164;2024-03-22T02:24:57;49.40;;;27.50;;
84315;SDS011;74496;52.236;5.164;2024-03-22T02:27:24;50.03;;;27.05;;
84315;SDS011;74496;52.236;5.164;2024-03-22T02:29:51;48.83;;;27.80;;
84315;SDS011;74496;52.236;5.164;2024-03-22T02:32:16;49.42;;;25.35;;
84315;SDS011;74496;52.236;5.164;2024-03-22T02:34:43;51.95;;;27.98;;
84315;SDS011;74496;52.236;5.164;2024-03-22T02:37:11;51.00;;;25.83;;
84315;SDS011;74496;52.236;5.164;2024-03-22T02:39:37;48.10;;;26.92;;
84315;SDS011;74496;52.236;5.164;2024-03-22T02:42:05;49.63;;;24.55;;
84315;SDS011;74496;52.236;5.164;2024-03-22T02:44:31;50.33;;;24.93;;
84315;SDS011;74496;52.236;5.164;2024-03-22T02:46:57;45.60;;;23.27;;
84315;SDS011;74496;52.236;5.164;2024-03-22T02:49:24;45.38;;;24.70;;
84315;SDS011;74496;52.236;5.164;2024-03-22T02:51:50;49.30;;;26.13;;
84315;SDS011;74496;52.236;5.164;2024-03-22T02:54:16;48.00;;;24.27;;
84315;SDS011;74496;52.236;5.164;2024-03-22T02:56:42;48.75;;;23.38;;
84315;SDS011;74496;52.236;5.164;2024-03-22T02:59:10;39.50;;;23.97;;
84315;SDS011;74496;52.236;5.164;2024-03-22T03:01:36;43.10;;;24.63;;
84315;SDS011;74496;52.236;5.164;2024-03-22T03:04:02;36.83;;;21.70;;
84315;SDS011;74496;52.236;5.164;2024-03-22T03:06:28;42.33;;;22.80;;
84315;SDS011;74496;52.236;5.164;2024-03-22T03:08:55;36.30;;;22.90;;
84315;SDS011;74496;52.236;5.164;2024-03-22T03:11:20;40.83;;;23.80;;
84315;SDS011;74496;52.236;5.164;2024-03-22T03:13:49;43.30;;;22.73;;
84315;SDS011;74496;52.236;5.164;2024-03-22T03:16:16;40.70;;;22.20;;
84315;SDS011;74496;52.236;5.164;2024-03-22T03:18:43;38.58;;;21.88;;
84315;SDS011;74496;52.236;5.164;2024-03-22T03:21:09;41.47;;;22.40;;
84315;SDS011;74496;52.236;5.164;2024-03-22T03:23:35;40.80;;;21.65;;
84315;SDS011;74496;52.236;5.164;2024-03-22T03:26:01;41.43;;;22.40;;
84315;SDS011;74496;52.236;5.164;2024-03-22T03:28:28;44.35;;;24.27;;
84315;SDS011;74496;52.236;5.164;2024-03-22T03:30:54;40.83;;;23.83;;
84315;SDS011;74496;52.236;5.164;2024-03-22T03:33:22;36.47;;;21.10;;
84315;SDS011;74496;52.236;5.164;2024-03-22T03:35:48;35.83;;;21.15;;
84315;SDS011;74496;52.236;5.164;2024-03-22T03:38:14;33.92;;;19.70;;
84315;SDS011;74496;52.236;5.164;2024-03-22T03:40:40;34.53;;;19.43;;
84315;SDS011;74496;52.236;5.164;2024-03-22T03:43:07;30.92;;;19.85;;
84315;SDS011;74496;52.236;5.164;2024-03-22T03:45:35;33.80;;;20.13;;
84315;SDS011;74496;52.236;5.164;2024-03-22T03:48:02;34.90;;;20.90;;
84315;SDS011;74496;52.236;5.164;2024-03-22T03:50:30;38.30;;;21.13;;
84315;SDS011;74496;52.236;5.164;2024-03-22T03:52:56;31.67;;;19.35;;
84315;SDS011;74496;52.236;5.164;2024-03-22T03:55:22;29.73;;;20.52;;
84315;SDS011;74496;52.236;5.164;2024-03-22T03:57:49;33.27;;;20.97;;
84315;SDS011;74496;52.236;5.164;2024-03-22T04:00:15;36.40;;;22.08;;
84315;SDS011;74496;52.236;5.164;2024-03-22T04:02:42;29.40;;;18.15;;
84315;SDS011;74496;52.236;5.164;2024-03-22T04:05:07;29.73;;;18.80;;
84315;SDS011;74496;52.236;5.164;2024-03-22T04:07:35;32.20;;;20.33;;
84315;SDS011;74496;52.236;5.164;2024-03-22T04:10:01;32.03;;;19.98;;
84315;SDS011;74496;52.236;5.164;2024-03-22T04:12:28;31.00;;;21.30;;
84315;SDS011;74496;52.236;5.164;2024-03-22T04:14:54;36.40;;;21.30;;
84315;SDS011;74496;52.236;5.164;2024-03-22T04:17:21;35.38;;;22.45;;
84315;SDS011;74496;52.236;5.164;2024-03-22T04:19:46;35.17;;;21.63;;
84315;SDS011;74496;52.236;5.164;2024-03-22T04:22:15;34.53;;;20.83;;
84315;SDS011;74496;52.236;5.164;2024-03-22T04:24:42;35.47;;;20.98;;
84315;SDS011;74496;52.236;5.164;2024-03-22T04:27:09;34.45;;;20.98;;
84315;SDS011;74496;52.236;5.164;2024-03-22T04:29:34;30.70;;;20.17;;
84315;SDS011;74496;52.236;5.164;2024-03-22T04:32:01;31.50;;;19.95;;
84315;SDS011;74496;52.236;5.164;2024-03-22T04:34:27;39.17;;;21.98;;
84315;SDS011;74496;52.236;5.164;2024-03-22T04:36:54;30.40;;;19.33;;
84315;SDS011;74496;52.236;5.164;2024-03-22T04:39:21;37.22;;;19.70;;
84315;SDS011;74496;52.236;5.164;2024-03-22T04:41:50;24.83;;;16.52;;
84315;SDS011;74496;52.236;5.164;2024-03-22T04:44:17;32.80;;;19.63;;
84315;SDS011;74496;52.236;5.164;2024-03-22T04:46:43;28.47;;;17.97;;
84315;SDS011;74496;52.236;5.164;2024-03-22T04:49:09;31.50;;;18.40;;
84315;SDS011;74496;52.236;5.164;2024-03-22T04:51:35;23.50;;;13.83;;
84315;SDS011;74496;52.236;5.164;2024-03-22T04:54:02;26.03;;;14.77;;
84315;SDS011;74496;52.236;5.164;2024-03-22T04:56:27;33.92;;;18.80;;
84315;SDS011;74496;52.236;5.164;2024-03-22T04:58:55;28.15;;;16.88;;
84315;SDS011;74496;52.236;5.164;2024-03-22T05:01:21;32.37;;;16.60;;
84315;SDS011;74496;52.236;5.164;2024-03-22T05:03:49;26.35;;;14.95;;
84315;SDS011;74496;52.236;5.164;2024-03-22T05:06:14;21.40;;;13.80;;
84315;SDS011;74496;52.236;5.164;2024-03-22T05:08:41;26.70;;;13.30;;
84315;SDS011;74496;52.236;5.164;2024-03-22T05:11:07;27.10;;;13.93;;
84315;SDS011;74496;52.236;5.164;2024-03-22T05:13:33;34.25;;;13.85;;
84315;SDS011;74496;52.236;5.164;2024-03-22T05:16:00;27.90;;;12.63;;
84315;SDS011;74496;52.236;5.164;2024-03-22T05:18:27;27.80;;;11.93;;
84315;SDS011;74496;52.236;5.164;2024-03-22T05:20:54;20.20;;;9.85;;
84315;SDS011;74496;52.236;5.164;2024-03-22T05:23:20;37.92;;;12.43;;
84315;SDS011;74496;52.236;5.164;2024-03-22T05:25:46;20.43;;;10.23;;
84315;SDS011;74496;52.236;5.164;2024-03-22T05:28:13;21.33;;;11.07;;
84315;SDS011;74496;52.236;5.164;2024-03-22T05:30:38;21.50;;;12.30;;
84315;SDS011;74496;52.236;5.164;2024-03-22T05:33:06;33.38;;;11.80;;
84315;SDS011;74496;52.236;5.164;2024-03-22T05:35:32;21.33;;;12.13;;
84315;SDS011;74496;52.236;5.164;2024-03-22T05:37:58;21.38;;;11.95;;
84315;SDS011;74496;52.236;5.164;2024-03-22T05:40:24;32.92;;;12.20;;
84315;SDS011;74496;52.236;5.164;2024-03-22T05:42:51;24.90;;;12.07;;
84315;SDS011;74496;52.236;5.164;2024-03-22T05:45:16;25.70;;;11.85;;
84315;SDS011;74496;52.236;5.164;2024-03-22T05:47:43;25.35;;;12.15;;
84315;SDS011;74496;52.236;5.164;2024-03-22T05:50:10;25.47;;;13.13;;
84315;SDS011;74496;52.236;5.164;2024-03-22T05:52:37;21.15;;;11.15;;
84315;SDS011;74496;52.236;5.164;2024-03-22T05:55:03;30.73;;;12.45;;
84315;SDS011;74496;52.236;5.164;2024-03-22T05:57:30;29.10;;;12.20;;
84315;SDS011;74496;52.236;5.164;2024-03-22T05:59:56;27.77;;;12.48;;
84315;SDS011;74496;52.236;5.164;2024-03-22T06:02:22;29.40;;;11.52;;
84315;SDS011;74496;52.236;5.164;2024-03-22T06:04:48;22.93;;;11.83;;
84315;SDS011;74496;52.236;5.164;2024-03-22T06:07:16;24.63;;;11.52;;
84315;SDS011;74496;52.236;5.164;2024-03-22T06:09:42;19.25;;;11.00;;
84315;SDS011;74496;52.236;5.164;2024-03-22T06:12:12;24.87;;;12.67;;
84315;SDS011;74496;52.236;5.164;2024-03-22T06:14:38;26.13;;;12.93;;
84315;SDS011;74496;52.236;5.164;2024-03-22T06:17:05;23.42;;;11.80;;
84315;SDS011;74496;52.236;5.164;2024-03-22T06:19:31;27.47;;;11.67;;
84315;SDS011;74496;52.236;5.164;2024-03-22T06:21:57;23.37;;;12.50;;
84315;SDS011;74496;52.236;5.164;2024-03-22T06:24:24;23.90;;;11.57;;
84315;SDS011;74496;52.236;5.164;2024-03-22T06:26:51;25.60;;;11.80;;
84315;SDS011;74496;52.236;5.164;2024-03-22T06:29:17;35.00;;;12.10;;
84315;SDS011;74496;52.236;5.164;2024-03-22T06:31:43;27.58;;;11.55;;
84315;SDS011;74496;52.236;5.164;2024-03-22T06:34:09;24.50;;;10.57;;
84315;SDS011;74496;52.236;5.164;2024-03-22T06:36:35;16.80;;;9.40;;
84315;SDS011;74496;52.236;5.164;2024-03-22T06:39:01;23.80;;;10.02;;
84315;SDS011;74496;52.236;5.164;2024-03-22T06:41:33;27.50;;;10.85;;
84315;SDS011;74496;52.236;5.164;2024-03-22T06:43:59;19.50;;;11.00;;
84315;SDS011;74496;52.236;5.164;2024-03-22T06:46:26;26.67;;;11.05;;
84315;SDS011;74496;52.236;5.164;2024-03-22T06:48:52;31.40;;;11.48;;
84315;SDS011;74496;52.236;5.164;2024-03-22T06:51:19;26.03;;;10.70;;
84315;SDS011;74496;52.236;5.164;2024-03-22T06:53:45;17.98;;;9.80;;
84315;SDS011;74496;52.236;5.164;2024-03-22T06:56:13;19.75;;;9.45;;
84315;SDS011;74496;52.236;5.164;2024-03-22T06:58:40;29.75;;;11.63;;
84315;SDS011;74496;52.236;5.164;2024-03-22T07:01:07;15.50;;;9.07;;
84315;SDS011;74496;52.236;5.164;2024-03-22T07:03:32;22.88;;;10.07;;
84315;SDS011;74496;52.236;5.164;2024-03-22T07:05:59;23.33;;;11.00;;
84315;SDS011;74496;52.236;5.164;2024-03-22T07:08:25;23.95;;;10.77;;
84315;SDS011;74496;52.236;5.164;2024-03-22T07:10:53;27.27;;;10.60;;
84315;SDS011;74496;52.236;5.164;2024-03-22T07:13:19;24.38;;;11.02;;
84315;SDS011;74496;52.236;5.164;2024-03-22T07:15:48;23.65;;;10.60;;
84315;SDS011;74496;52.236;5.164;2024-03-22T07:18:14;25.50;;;10.30;;
84315;SDS011;74496;52.236;5.164;2024-03-22T07:20:41;24.00;;;11.70;;
84315;SDS011;74496;52.236;5.164;2024-03-22T07:23:07;21.40;;;10.77;;
84315;SDS011;74496;52.236;5.164;2024-03-22T07:25:33;24.90;;;10.60;;
84315;SDS011;74496;52.236;5.164;2024-03-22T07:27:59;28.03;;;10.93;;
84315;SDS011;74496;52.236;5.164;2024-03-22T07:30:26;25.95;;;11.13;;
84315;SDS011;74496;52.236;5.164;2024-03-22T07:32:53;26.40;;;10.70;;
84315;SDS011;74496;52.236;5.164;2024-03-22T07:35:19;24.08;;;11.90;;
84315;SDS011;74496;52.236;5.164;2024-03-22T07:37:45;20.03;;;10.17;;
84315;SDS011;74496;52.236;5.164;2024-03-22T07:40:12;30.50;;;11.30;;
84315;SDS011;74496;52.236;5.164;2024-03-22T07:42:37;24.37;;;10.57;;
84315;SDS011;74496;52.236;5.164;2024-03-22T07:45:04;22.77;;;10.80;;
84315;SDS011;74496;52.236;5.164;2024-03-22T07:47:30;24.10;;;10.38;;
84315;SDS011;74496;52.236;5.164;2024-03-22T07:49:58;21.58;;;11.43;;
84315;SDS011;74496;52.236;5.164;2024-03-22T07:52:24;28.10;;;10.18;;
84315;SDS011;74496;52.236;5.164;2024-03-22T07:54:51;28.73;;;10.27;;
84315;SDS011;74496;52.236;5.164;2024-03-22T07:57:17;20.65;;;9.45;;
84315;SDS011;74496;52.236;5.164;2024-03-22T07:59:43;19.00;;;9.65;;
84315;SDS011;74496;52.236;5.164;2024-03-22T08:02:10;19.60;;;9.15;;
84315;SDS011;74496;52.236;5.164;2024-03-22T08:04:36;22.10;;;9.60;;
84315;SDS011;74496;52.236;5.164;2024-03-22T08:07:03;25.80;;;9.17;;
84315;SDS011;74496;52.236;5.164;2024-03-22T08:09:31;21.85;;;9.93;;
84315;SDS011;74496;52.236;5.164;2024-03-22T08:11:56;21.17;;;9.13;;
84315;SDS011;74496;52.236;5.164;2024-03-22T08:14:23;18.73;;;9.07;;
84315;SDS011;74496;52.236;5.164;2024-03-22T08:16:49;22.27;;;8.40;;
84315;SDS011;74496;52.236;5.164;2024-03-22T08:19:15;18.35;;;8.07;;
84315;SDS011;74496;52.236;5.164;2024-03-22T08:21:41;21.73;;;8.33;;
84315;SDS011;74496;52.236;5.164;2024-03-22T08:24:10;16.10;;;6.72;;
84315;SDS011;74496;52.236;5.164;2024-03-22T08:26:35;19.33;;;7.85;;
84315;SDS011;74496;52.236;5.164;2024-03-22T08:29:02;22.77;;;8.37;;
84315;SDS011;74496;52.236;5.164;2024-03-22T08:31:28;21.13;;;8.13;;
84315;SDS011;74496;52.236;5.164;2024-03-22T08:33:54;17.27;;;7.95;;
84315;SDS011;74496;52.236;5.164;2024-03-22T08:36:21;23.27;;;7.87;;
84315;SDS011;74496;52.236;5.164;2024-03-22T08:38:48;13.27;;;6.95;;
84315;SDS011;74496;52.236;5.164;2024-03-22T08:41:15;15.10;;;8.80;;
84315;SDS011;74496;52.236;5.164;2024-03-22T08:43:42;19.50;;;8.30;;
84315;SDS011;74496;52.236;5.164;2024-03-22T08:46:07;18.08;;;8.20;;
84315;SDS011;74496;52.236;5.164;2024-03-22T08:48:36;20.40;;;7.70;;
84315;SDS011;74496;52.236;5.164;2024-03-22T08:51:01;26.43;;;8.37;;
84315;SDS011;74496;52.236;5.164;2024-03-22T08:53:28;30.10;;;8.52;;
84315;SDS011;74496;52.236;5.164;2024-03-22T08:55:53;21.30;;;8.20;;
84315;SDS011;74496;52.236;5.164;2024-03-22T08:58:21;15.73;;;7.90;;
84315;SDS011;74496;52.236;5.164;2024-03-22T09:00:47;22.63;;;8.27;;
84315;SDS011;74496;52.236;5.164;2024-03-22T09:03:14;16.23;;;8.63;;
84315;SDS011;74496;52.236;5.164;2024-03-22T09:05:40;13.60;;;8.03;;
84315;SDS011;74496;52.236;5.164;2024-03-22T09:08:06;11.98;;;7.72;;
84315;SDS011;74496;52.236;5.164;2024-03-22T09:10:32;15.23;;;8.47;;
84315;SDS011;74496;52.236;5.164;2024-03-22T09:12:59;15.73;;;7.20;;
84315;SDS011;74496;52.236;5.164;2024-03-22T09:15:26;17.67;;;8.02;;
84315;SDS011;74496;52.236;5.164;2024-03-22T09:17:52;15.47;;;8.00;;
84315;SDS011;74496;52.236;5.164;2024-03-22T09:20:18;15.85;;;7.65;;
84315;SDS011;74496;52.236;5.164;2024-03-22T09:22:45;15.45;;;7.80;;
84315;SDS011;74496;52.236;5.164;2024-03-22T09:25:11;11.55;;;7.13;;
84315;SDS011;74496;52.236;5.164;2024-03-22T09:27:38;14.30;;;7.63;;
84315;SDS011;74496;52.236;5.164;2024-03-22T09:30:04;11.60;;;7.45;;
84315;SDS011;74496;52.236;5.164;2024-03-22T09:32:33;19.42;;;7.93;;
84315;SDS011;74496;52.236;5.164;2024-03-22T09:34:59;10.87;;;6.47;;
84315;SDS011;74496;52.236;5.164;2024-03-22T09:37:26;15.45;;;7.10;;
84315;SDS011;74496;52.236;5.164;2024-03-22T09:39:51;17.00;;;8.07;;
84315;SDS011;74496;52.236;5.164;2024-03-22T09:42:18;14.68;;;7.57;;
84315;SDS011;74496;52.236;5.164;2024-03-22T09:44:48;10.93;;;6.83;;
84315;SDS011;74496;52.236;5.164;2024-03-22T09:47:16;12.13;;;6.85;;
84315;SDS011;74496;52.236;5.164;2024-03-22T09:49:43;9.18;;;6.57;;
84315;SDS011;74496;52.236;5.164;2024-03-22T09:52:13;11.95;;;7.10;;
84315;SDS011;74496;52.236;5.164;2024-03-22T09:54:40;13.82;;;8.70;;
84315;SDS011;74496;52.236;5.164;2024-03-22T09:57:09;10.30;;;6.17;;
84315;SDS011;74496;52.236;5.164;2024-03-22T09:59:37;11.38;;;6.80;;
84315;SDS011;74496;52.236;5.164;2024-03-22T10:02:04;12.73;;;7.57;;
84315;SDS011;74496;52.236;5.164;2024-03-22T10:04:32;10.30;;;5.82;;
84315;SDS011;74496;52.236;5.164;2024-03-22T10:07:02;17.38;;;6.85;;
84315;SDS011;74496;52.236;5.164;2024-03-22T10:09:29;11.70;;;6.97;;
84315;SDS011;74496;52.236;5.164;2024-03-22T10:11:56;14.30;;;7.18;;
84315;SDS011;74496;52.236;5.164;2024-03-22T10:14:22;10.50;;;6.63;;
84315;SDS011;74496;52.236;5.164;2024-03-22T10:16:50;10.85;;;7.20;;
84315;SDS011;74496;52.236;5.164;2024-03-22T10:19:18;10.00;;;6.73;;
84315;SDS011;74496;52.236;5.164;2024-03-22T10:21:45;10.52;;;6.47;;
84315;SDS011;74496;52.236;5.164;2024-03-22T10:24:13;10.35;;;6.20;;
84315;SDS011;74496;52.236;5.164;2024-03-22T10:26:40;12.00;;;6.47;;
84315;SDS011;74496;52.236;5.164;2024-03-22T10:29:10;9.77;;;6.18;;
84315;SDS011;74496;52.236;5.164;2024-03-22T10:31:38;7.93;;;6.07;;
84315;SDS011;74496;52.236;5.164;2024-03-22T10:34:04;10.18;;;5.95;;
84315;SDS011;74496;52.236;5.164;2024-03-22T10:36:33;11.27;;;6.53;;
84315;SDS011;74496;52.236;5.164;2024-03-22T10:39:01;14.48;;;6.55;;
84315;SDS011;74496;52.236;5.164;2024-03-22T10:41:31;9.77;;;6.40;;
84315;SDS011;74496;52.236;5.164;2024-03-22T10:43:57;9.37;;;6.23;;
84315;SDS011;74496;52.236;5.164;2024-03-22T10:46:26;9.50;;;6.57;;
84315;SDS011;74496;52.236;5.164;2024-03-22T10:48:54;10.75;;;5.75;;
84315;SDS011;74496;52.236;5.164;2024-03-22T10:51:21;11.90;;;6.65;;
84315;SDS011;74496;52.236;5.164;2024-03-22T10:53:48;15.73;;;6.78;;
84315;SDS011;74496;52.236;5.164;2024-03-22T10:56:17;9.20;;;5.83;;
84315;SDS011;74496;52.236;5.164;2024-03-22T10:58:45;13.68;;;6.30;;
84315;SDS011;74496;52.236;5.164;2024-03-22T11:01:23;10.27;;;5.78;;
84315;SDS011;74496;52.236;5.164;2024-03-22T11:03:51;9.00;;;6.45;;
84315;SDS011;74496;52.236;5.164;2024-03-22T11:06:18;9.32;;;5.22;;
84315;SDS011;74496;52.236;5.164;2024-03-22T11:08:49;6.53;;;4.97;;
84315;SDS011;74496;52.236;5.164;2024-03-22T11:11:17;12.70;;;5.68;;
84315;SDS011;74496;52.236;5.164;2024-03-22T11:13:43;6.78;;;5.25;;
84315;SDS011;74496;52.236;5.164;2024-03-22T11:16:14;8.57;;;5.15;;
84315;SDS011;74496;52.236;5.164;2024-03-22T11:18:40;6.38;;;4.90;;
84315;SDS011;74496;52.236;5.164;2024-03-22T11:21:07;10.13;;;4.87;;
84315;SDS011;74496;52.236;5.164;2024-03-22T11:23:34;5.60;;;5.10;;
84315;SDS011;74496;52.236;5.164;2024-03-22T11:26:02;6.45;;;4.95;;
84315;SDS011;74496;52.236;5.164;2024-03-22T11:28:28;8.27;;;5.72;;
84315;SDS011;74496;52.236;5.164;2024-03-22T11:30:55;5.03;;;4.63;;
84315;SDS011;74496;52.236;5.164;2024-03-22T11:33:22;5.53;;;4.60;;
84315;SDS011;74496;52.236;5.164;2024-03-22T11:35:49;5.82;;;4.97;;
84315;SDS011;74496;52.236;5.164;2024-03-22T11:38:15;6.17;;;5.10;;
84315;SDS011;74496;52.236;5.164;2024-03-22T11:40:42;7.40;;;5.35;;
84315;SDS011;74496;52.236;5.164;2024-03-22T11:43:09;5.78;;;5.22;;
84315;SDS011;74496;52.236;5.164;2024-03-22T11:45:38;9.82;;;5.10;;
84315;SDS011;74496;52.236;5.164;2024-03-22T11:48:05;5.63;;;4.95;;
84315;SDS011;74496;52.236;5.164;2024-03-22T11:50:34;6.23;;;5.63;;
84315;SDS011;74496;52.236;5.164;2024-03-22T11:53:01;11.32;;;6.43;;
84315;SDS011;74496;52.236;5.164;2024-03-22T11:55:28;7.95;;;6.55;;
84315;SDS011;74496;52.236;5.164;2024-03-22T11:57:57;8.90;;;6.32;;
84315;SDS011;74496;52.236;5.164;2024-03-22T12:00:23;6.60;;;5.43;;
84315;SDS011;74496;52.236;5.164;2024-03-22T12:02:50;8.87;;;6.80;;
84315;SDS011;74496;52.236;5.164;2024-03-22T12:05:17;7.88;;;6.38;;
84315;SDS011;74496;52.236;5.164;2024-03-22T12:07:45;8.52;;;6.43;;
84315;SDS011;74496;52.236;5.164;2024-03-22T12:10:11;11.38;;;6.78;;
84315;SDS011;74496;52.236;5.164;2024-03-22T12:12:39;10.57;;;7.20;;
84315;SDS011;74496;52.236;5.164;2024-03-22T12:15:06;12.65;;;8.18;;
84315;SDS011;74496;52.236;5.164;2024-03-22T12:17:32;16.13;;;8.00;;
84315;SDS011;74496;52.236;5.164;2024-03-22T12:20:01;12.23;;;8.25;;
84315;SDS011;74496;52.236;5.164;2024-03-22T12:22:29;12.85;;;7.57;;
84315;SDS011;74496;52.236;5.164;2024-03-22T12:24:56;15.97;;;7.97;;
84315;SDS011;74496;52.236;5.164;2024-03-22T12:27:24;21.50;;;8.20;;
84315;SDS011;74496;52.236;5.164;2024-03-22T12:29:50;16.57;;;8.60;;
84315;SDS011;74496;52.236;5.164;2024-03-22T12:32:16;18.90;;;8.43;;
84315;SDS011;74496;52.236;5.164;2024-03-22T12:34:42;14.02;;;7.72;;
84315;SDS011;74496;52.236;5.164;2024-03-22T12:37:09;13.65;;;7.75;;
84315;SDS011;74496;52.236;5.164;2024-03-22T12:39:34;15.27;;;6.90;;
84315;SDS011;74496;52.236;5.164;2024-03-22T12:42:04;12.73;;;7.07;;
84315;SDS011;74496;52.236;5.164;2024-03-22T12:44:31;10.35;;;6.97;;
84315;SDS011;74496;52.236;5.164;2024-03-22T12:46:56;11.33;;;6.57;;
84315;SDS011;74496;52.236;5.164;2024-03-22T12:49:24;13.63;;;6.57;;
84315;SDS011;74496;52.236;5.164;2024-03-22T12:51:50;13.48;;;6.63;;
84315;SDS011;74496;52.236;5.164;2024-03-22T12:54:17;15.63;;;7.10;;
84315;SDS011;74496;52.236;5.164;2024-03-22T12:56:44;15.07;;;7.50;;
84315;SDS011;74496;52.236;5.164;2024-03-22T12:59:12;12.77;;;7.35;;
84315;SDS011;74496;52.236;5.164;2024-03-22T13:01:42;13.48;;;7.40;;
84315;SDS011;74496;52.236;5.164;2024-03-22T13:04:09;13.88;;;7.95;;
84315;SDS011;74496;52.236;5.164;2024-03-22T13:06:34;13.10;;;7.30;;
84315;SDS011;74496;52.236;5.164;2024-03-22T13:09:03;15.30;;;7.60;;
84315;SDS011;74496;52.236;5.164;2024-03-22T13:11:29;12.60;;;7.57;;
84315;SDS011;74496;52.236;5.164;2024-03-22T13:13:56;15.52;;;7.35;;
84315;SDS011;74496;52.236;5.164;2024-03-22T13:16:23;12.87;;;8.03;;
84315;SDS011;74496;52.236;5.164;2024-03-22T13:18:50;22.27;;;8.82;;
84315;SDS011;74496;52.236;5.164;2024-03-22T13:21:17;12.85;;;7.70;;
84315;SDS011;74496;52.236;5.164;2024-03-22T13:23:44;16.42;;;7.53;;
84315;SDS011;74496;52.236;5.164;2024-03-22T13:26:10;16.97;;;8.43;;
84315;SDS011;74496;52.236;5.164;2024-03-22T13:32:35;16.13;;;7.28;;
84315;SDS011;74496;52.236;5.164;2024-03-22T13:35:02;21.00;;;7.85;;
84315;SDS011;74496;52.236;5.164;2024-03-22T13:37:28;15.57;;;6.13;;
84315;SDS011;74496;52.236;5.164;2024-03-22T13:39:55;16.23;;;6.82;;
84315;SDS011;74496;52.236;5.164;2024-03-22T13:49:22;15.48;;;6.95;;
84315;SDS011;74496;52.236;5.164;2024-03-22T13:54:34;10.52;;;6.05;;
84315;SDS011;74496;52.236;5.164;2024-03-22T13:57:02;11.05;;;5.72;;
84315;SDS011;74496;52.236;5.164;2024-03-22T14:07:58;12.85;;;5.55;;
84315;SDS011;74496;52.236;5.164;2024-03-22T14:43:42;9.60;;;4.30;;
84315;SDS011;74496;52.236;5.164;2024-03-22T14:46:08;14.00;;;4.40;;
84315;SDS011;74496;52.236;5.164;2024-03-22T14:48:34;12.75;;;3.90;;
84315;SDS011;74496;52.236;5.164;2024-03-22T14:51:00;13.63;;;3.80;;
84315;SDS011;74496;52.236;5.164;2024-03-22T14:53:27;16.55;;;4.22;;
84315;SDS011;74496;52.236;5.164;2024-03-22T14:55:53;15.35;;;4.47;;
84315;SDS011;74496;52.236;5.164;2024-03-22T14:58:24;14.53;;;4.83;;
84315;SDS011;74496;52.236;5.164;2024-03-22T15:00:52;21.38;;;4.93;;
84315;SDS011;74496;52.236;5.164;2024-03-22T15:03:19;11.45;;;3.92;;
84315;SDS011;74496;52.236;5.164;2024-03-22T15:05:45;16.55;;;4.60;;
84315;SDS011;74496;52.236;5.164;2024-03-22T15:08:11;11.50;;;4.70;;
84315;SDS011;74496;52.236;5.164;2024-03-22T15:10:37;19.17;;;4.70;;
84315;SDS011;74496;52.236;5.164;2024-03-22T15:13:04;16.20;;;4.57;;
84315;SDS011;74496;52.236;5.164;2024-03-22T15:15:32;15.52;;;4.28;;
84315;SDS011;74496;52.236;5.164;2024-03-22T15:17:59;16.33;;;4.20;;
84315;SDS011;74496;52.236;5.164;2024-03-22T15:20:27;17.63;;;3.80;;